Haukur — OZ2119 — position and weather

sailwx.info

Track history (hours):
 
Tides and Currents Weather Stations Pressure Air Temp Water Temp Dewpoint Dewpoint Depression Visibility Wind Speed Wind Dir Waves Ship Positions

Haukur

Last reported at 2015-Jan-20 04:31 UTC. Time now 2015-Jan-30 12:31 UTC.
Position N 59°11' W 004°32'.
Warning: this ship's position is 10 days out of date.

Length 75 m; draft 6 m.

Type: Cargo ship. MMSI: 231812000.

Date/timePositionNaut miles runAvg speedWind from/ knotsBaromVisibWave heightAir tempDewpointWater temp
2015-Jan-20 04:31N 59°11' W 004°32'9 8.9
2015-Jan-20 03:33N 59°06' W 004°18'9 9.2
2015-Jan-20 02:32N 59°01' W 004°03'9 9.4
2015-Jan-20 01:33N 58°55' W 003°48'10 9.6
2015-Jan-20 00:33N 58°50' W 003°33'1110.7
2015-Jan-19 23:31N 58°44' W 003°15'9 9.0
2015-Jan-19 22:33N 58°40' W 003°00'6 5.7
2015-Jan-19 21:33N 58°36' W 002°53'62 7.4
2015-Jan-19 13:15N 57°50' W 001°33'5 7.0
2015-Jan-19 12:33N 57°46' W 001°28'7 6.8
2015-Jan-19 11:33N 57°41' W 001°20'7 6.7
2015-Jan-19 10:33N 57°36' W 001°12'7 6.7
2015-Jan-19 09:33N 57°31' W 001°04'298 8.2
2015-Jan-17 21:05N 53°46' E 004°43'5 7.7
2015-Jan-17 20:27N 53°41' E 004°45'7 8.3
2015-Jan-17 19:33N 53°34' E 004°48'8 8.3
2015-Jan-17 18:34N 53°26' E 004°52'8 8.1
2015-Jan-17 17:34N 53°18' E 004°56'5 5.2
2015-Jan-17 16:33N 53°19' E 005°04'5 5.0
2015-Jan-17 15:33N 53°15' E 005°10'6 6.3
2015-Jan-17 14:33N 53°12' E 005°18'5 4.5
2015-Jan-17 13:33N 53°11' E 005°26'0 0.3
2015-Jan-17 12:32N 53°11' E 005°26'0 0.0
2015-Jan-17 11:32N 53°11' E 005°26'0 0.0
2015-Jan-17 10:32N 53°11' E 005°26'0 0.0
2015-Jan-17 09:32N 53°11' E 005°26'0 0.0
2015-Jan-17 08:32N 53°11' E 005°26'0 0.0
2015-Jan-17 07:32N 53°11' E 005°26'0 0.0
2015-Jan-17 06:32N 53°11' E 005°26'0 0.0
2015-Jan-17 05:32N 53°11' E 005°26'0 0.0
2015-Jan-17 04:32N 53°11' E 005°26'0 0.0
2015-Jan-17 03:31N 53°11' E 005°26'0 0.0
2015-Jan-17 02:31N 53°11' E 005°26'0 0.0
2015-Jan-17 01:31N 53°11' E 005°26'0 0.0
2015-Jan-17 00:31N 53°11' E 005°26'0 0.0
2015-Jan-16 23:31N 53°11' E 005°26'0 0.0
2015-Jan-16 22:28N 53°11' E 005°26'0 0.0
2015-Jan-16 21:31N 53°11' E 005°26'0 0.0
2015-Jan-16 20:33N 53°12' E 005°26'3 3.5
2015-Jan-16 19:33N 53°11' E 005°20'8 7.5
2015-Jan-16 18:33N 53°15' E 005°10'5 5.2
2015-Jan-16 17:34N 53°19' E 005°03'4 4.0
2015-Jan-16 16:34N 53°21' E 004°58'8 7.7
2015-Jan-16 15:33N 53°26' E 005°07'7 7.0
2015-Jan-16 14:33N 53°30' E 005°17'7 6.6
2015-Jan-16 13:33N 53°35' E 005°23'6 5.5
2015-Jan-16 12:33N 53°39' E 005°30'7 6.7
2015-Jan-16 11:33N 53°41' E 005°41'8 7.5
2015-Jan-16 10:33N 53°43' E 005°53'8 7.6
2015-Jan-16 09:33N 53°46' E 006°05'8 6.7
2015-Jan-16 08:20N 53°49' E 006°18'29 4.2
2015-Jan-16 01:29N 53°56' E 007°06'5 5.0
2015-Jan-16 00:29N 53°58' E 007°14'7 5.9
2015-Jan-15 23:19N 53°59' E 007°25'5 7.2
2015-Jan-15 22:33N 54°01' E 007°34'8 7.7
2015-Jan-15 21:33N 54°02' E 007°47'9 8.9
2015-Jan-15 20:33N 54°02' E 008°02'9 9.1
2015-Jan-15 19:33N 54°01' E 008°17'9 9.1
2015-Jan-15 18:33N 53°58' E 008°32'8 8.0
2015-Jan-15 17:34N 53°53' E 008°43'8 7.5
2015-Jan-15 16:33N 53°51' E 008°55'8 8.2
2015-Jan-15 15:34N 53°53' E 009°08'0 0.4
2015-Jan-15 14:33N 53°54' E 009°09'0 0.0
2015-Jan-15 13:33N 53°54' E 009°09'0 0.1
2015-Jan-15 12:33N 53°54' E 009°09'7 7.2
2015-Jan-15 11:33N 53°59' E 009°17'9 8.5
2015-Jan-15 10:33N 54°07' E 009°20'10 8.2
2015-Jan-15 09:18N 54°13' E 009°35'6 7.5
2015-Jan-15 08:29N 54°18' E 009°41'7 7.7
2015-Jan-15 07:34N 54°22' E 009°51'8 7.9
2015-Jan-15 06:34N 54°22' E 010°04'3 2.8
2015-Jan-15 05:33N 54°22' E 010°09'1 0.9
2015-Jan-15 04:34N 54°22' E 010°10'6 6.0
2015-Jan-15 03:33N 54°28' E 010°15'9 8.9
2015-Jan-15 02:33N 54°33' E 010°28'13 9.2
2015-Jan-15 01:07N 54°35' E 010°50'5 9.1
2015-Jan-15 00:33N 54°36' E 010°59'9 8.7
2015-Jan-14 23:33N 54°35' E 011°14'9 9.3
2015-Jan-14 22:33N 54°31' E 011°28'9 9.4
2015-Jan-14 21:33N 54°27' E 011°43'9 9.4
2015-Jan-14 20:33N 54°26' E 011°59'8 8.0
2015-Jan-14 19:33N 54°30' E 012°11'9 9.0
2015-Jan-14 18:33N 54°38' E 012°19'9 9.2
2015-Jan-14 17:33N 54°43' E 012°33'9 9.2
2015-Jan-14 16:33N 54°47' E 012°47'9 9.0
2015-Jan-14 15:33N 54°47' E 013°03'8 8.0
2015-Jan-14 14:33N 54°47' E 013°17'8 7.6
2015-Jan-14 13:33N 54°47' E 013°30'9 8.8
2015-Jan-14 12:33N 54°45' E 013°45'10 9.3
2015-Jan-14 11:30N 54°42' E 014°01'9 9.6
2015-Jan-14 10:33N 54°39' E 014°16'20 9.3
2015-Jan-14 08:21N 54°40' E 014°51'8 9.6
2015-Jan-14 07:31N 54°41' E 015°05'100 9.1
2015-Jan-13 20:32N 54°54' E 017°57'9 8.8
2015-Jan-13 19:34N 54°54' E 018°12'9 8.7
2015-Jan-13 18:33N 54°51' E 018°26'9 9.5
2015-Jan-13 17:34N 54°46' E 018°40'10 9.7
2015-Jan-13 16:33N 54°41' E 018°54'8 8.1
2015-Jan-13 15:33N 54°33' E 018°51'10 9.8
2015-Jan-13 14:34N 54°26' E 018°40'3 3.0
2015-Jan-13 13:31N 54°23' E 018°40'0 0.0
2015-Jan-13 12:31N 54°23' E 018°40'0 0.0
2015-Jan-13 11:31N 54°23' E 018°40'0 0.0
2015-Jan-13 10:31N 54°23' E 018°40'1 0.6
2015-Jan-13 09:34N 54°23' E 018°40'1 0.8
2015-Jan-13 08:32N 54°22' E 018°40'0 0.0
2015-Jan-13 07:32N 54°22' E 018°40'0 0.0
2015-Jan-13 06:32N 54°22' E 018°40'0 0.0
2015-Jan-13 05:32N 54°22' E 018°40'0 0.0
2015-Jan-13 04:32N 54°22' E 018°40'0 0.0
2015-Jan-13 03:32N 54°22' E 018°40'0 0.0
2015-Jan-13 02:32N 54°22' E 018°40'0 0.0
2015-Jan-13 01:32N 54°22' E 018°40'0 0.0
2015-Jan-13 00:32N 54°22' E 018°40'0 0.0
2015-Jan-12 23:32N 54°22' E 018°40'0 0.0
2015-Jan-12 22:32N 54°22' E 018°40'0 0.0
2015-Jan-12 21:32N 54°22' E 018°40'0 0.0
2015-Jan-12 20:32N 54°22' E 018°40'0 0.0
2015-Jan-12 19:32N 54°22' E 018°40'0 0.0
2015-Jan-12 18:32N 54°22' E 018°40'0 0.0
2015-Jan-12 17:32N 54°22' E 018°40'2 1.6
2015-Jan-12 16:33N 54°23' E 018°40'3 3.0
2015-Jan-12 15:32N 54°26' E 018°39'0 0.0
2015-Jan-12 14:32N 54°26' E 018°39'0 0.0
2015-Jan-12 13:32N 54°26' E 018°39'0 0.0
2015-Jan-12 12:32N 54°26' E 018°39'0 0.0
2015-Jan-12 11:32N 54°26' E 018°39'0 0.0
2015-Jan-12 10:32N 54°26' E 018°39'0 0.0
2015-Jan-12 09:32N 54°26' E 018°39'0 0.0
2015-Jan-12 08:32N 54°26' E 018°39'0 0.0
2015-Jan-12 07:32N 54°26' E 018°39'0 0.0
2015-Jan-12 06:32N 54°26' E 018°39'0 0.0
2015-Jan-12 05:32N 54°26' E 018°39'0 0.0
2015-Jan-12 04:32N 54°26' E 018°39'0 0.0
2015-Jan-12 03:32N 54°26' E 018°39'0 0.0
2015-Jan-12 02:32N 54°26' E 018°39'0 0.0
2015-Jan-12 01:32N 54°26' E 018°39'0 0.0
2015-Jan-12 00:32N 54°26' E 018°39'0 0.0
2015-Jan-11 23:32N 54°26' E 018°39'0 0.0
2015-Jan-11 22:32N 54°26' E 018°39'0 0.0
2015-Jan-11 21:32N 54°26' E 018°39'0 0.0
2015-Jan-11 20:32N 54°26' E 018°39'0 0.0
2015-Jan-11 19:32N 54°26' E 018°39'0 0.0
2015-Jan-11 18:32N 54°26' E 018°39'0 0.0
2015-Jan-11 17:32N 54°26' E 018°39'0 0.0
2015-Jan-11 16:32N 54°26' E 018°39'0 0.0
2015-Jan-11 15:32N 54°26' E 018°39'0 0.0
2015-Jan-11 14:32N 54°26' E 018°39'0 0.0
2015-Jan-11 13:32N 54°26' E 018°39'0 0.0
2015-Jan-11 12:32N 54°26' E 018°39'0 0.0
2015-Jan-11 11:32N 54°26' E 018°39'0 0.0
2015-Jan-11 10:32N 54°26' E 018°39'0 0.0
2015-Jan-11 09:32N 54°26' E 018°39'0 0.0
2015-Jan-11 08:32N 54°26' E 018°39'0 0.0
2015-Jan-11 07:32N 54°26' E 018°39'0 0.0
2015-Jan-11 06:31N 54°26' E 018°39'0 0.0
2015-Jan-11 05:31N 54°26' E 018°39'0 0.0
2015-Jan-11 04:31N 54°26' E 018°39'0 0.0
2015-Jan-11 03:31N 54°26' E 018°39'0 0.0
2015-Jan-11 02:31N 54°26' E 018°39'0 0.0
2015-Jan-11 01:31N 54°26' E 018°39'0 0.0
2015-Jan-11 00:31N 54°26' E 018°39'0 0.0
2015-Jan-10 23:31N 54°26' E 018°39'0 0.0
2015-Jan-10 22:31N 54°26' E 018°39'0 0.0
2015-Jan-10 21:31N 54°26' E 018°39'0 0.0
2015-Jan-10 20:31N 54°26' E 018°39'0 0.0
2015-Jan-10 19:31N 54°26' E 018°39'0 0.0
2015-Jan-10 18:31N 54°26' E 018°39'0 0.0
2015-Jan-10 17:31N 54°26' E 018°39'0 0.0
2015-Jan-10 16:31N 54°26' E 018°39'0 0.0
2015-Jan-10 15:31N 54°26' E 018°39'0 0.0
2015-Jan-10 14:31N 54°26' E 018°39'0 0.0
2015-Jan-10 13:31N 54°26' E 018°39'0 0.0
2015-Jan-10 12:31N 54°26' E 018°39'0 0.0
2015-Jan-10 11:31N 54°26' E 018°39'0 0.0
2015-Jan-10 10:31N 54°26' E 018°39'0 0.0
2015-Jan-10 09:31N 54°26' E 018°39'0 0.1
2015-Jan-10 08:31N 54°26' E 018°39'0 0.0
2015-Jan-10 07:31N 54°26' E 018°39'0 0.0
2015-Jan-10 06:31N 54°26' E 018°39'0 0.0
2015-Jan-10 05:31N 54°26' E 018°39'  
Track history (hours):
 
Tides and Currents Weather Stations Pressure Air Temp Water Temp Dewpoint Dewpoint Depression Visibility Wind Speed Wind Dir Waves Ship Positions

Haukur

Last reported at 2015-Jan-20 04:31 UTC. Time now 2015-Jan-30 12:31 UTC.
Position N 59°11' W 004°32'.
Warning: this ship's position is 10 days out of date.

Length 75 m; draft 6 m.

Type: Cargo ship. MMSI: 231812000.

Date/timePositionNaut miles runAvg speedWind from/ knotsBaromVisibWave heightAir tempDewpointWater temp
2015-Jan-20 04:31N 59°11' W 004°32'9 8.9
2015-Jan-20 03:33N 59°06' W 004°18'9 9.2
2015-Jan-20 02:32N 59°01' W 004°03'9 9.4
2015-Jan-20 01:33N 58°55' W 003°48'10 9.6
2015-Jan-20 00:33N 58°50' W 003°33'1110.7
2015-Jan-19 23:31N 58°44' W 003°15'9 9.0
2015-Jan-19 22:33N 58°40' W 003°00'6 5.7
2015-Jan-19 21:33N 58°36' W 002°53'62 7.4
2015-Jan-19 13:15N 57°50' W 001°33'5 7.0
2015-Jan-19 12:33N 57°46' W 001°28'7 6.8
2015-Jan-19 11:33N 57°41' W 001°20'7 6.7
2015-Jan-19 10:33N 57°36' W 001°12'7 6.7
2015-Jan-19 09:33N 57°31' W 001°04'298 8.2
2015-Jan-17 21:05N 53°46' E 004°43'5 7.7
2015-Jan-17 20:27N 53°41' E 004°45'7 8.3
2015-Jan-17 19:33N 53°34' E 004°48'8 8.3
2015-Jan-17 18:34N 53°26' E 004°52'8 8.1
2015-Jan-17 17:34N 53°18' E 004°56'5 5.2
2015-Jan-17 16:33N 53°19' E 005°04'5 5.0
2015-Jan-17 15:33N 53°15' E 005°10'6 6.3
2015-Jan-17 14:33N 53°12' E 005°18'5 4.5
2015-Jan-17 13:33N 53°11' E 005°26'0 0.3
2015-Jan-17 12:32N 53°11' E 005°26'0 0.0
2015-Jan-17 11:32N 53°11' E 005°26'0 0.0
2015-Jan-17 10:32N 53°11' E 005°26'0 0.0
2015-Jan-17 09:32N 53°11' E 005°26'0 0.0
2015-Jan-17 08:32N 53°11' E 005°26'0 0.0
2015-Jan-17 07:32N 53°11' E 005°26'0 0.0
2015-Jan-17 06:32N 53°11' E 005°26'0 0.0
2015-Jan-17 05:32N 53°11' E 005°26'0 0.0
2015-Jan-17 04:32N 53°11' E 005°26'0 0.0
2015-Jan-17 03:31N 53°11' E 005°26'0 0.0
2015-Jan-17 02:31N 53°11' E 005°26'0 0.0
2015-Jan-17 01:31N 53°11' E 005°26'0 0.0
2015-Jan-17 00:31N 53°11' E 005°26'0 0.0
2015-Jan-16 23:31N 53°11' E 005°26'0 0.0
2015-Jan-16 22:28N 53°11' E 005°26'0 0.0
2015-Jan-16 21:31N 53°11' E 005°26'0 0.0
2015-Jan-16 20:33N 53°12' E 005°26'3 3.5
2015-Jan-16 19:33N 53°11' E 005°20'8 7.5
2015-Jan-16 18:33N 53°15' E 005°10'5 5.2
2015-Jan-16 17:34N 53°19' E 005°03'4 4.0
2015-Jan-16 16:34N 53°21' E 004°58'8 7.7
2015-Jan-16 15:33N 53°26' E 005°07'7 7.0
2015-Jan-16 14:33N 53°30' E 005°17'7 6.6
2015-Jan-16 13:33N 53°35' E 005°23'6 5.5
2015-Jan-16 12:33N 53°39' E 005°30'7 6.7
2015-Jan-16 11:33N 53°41' E 005°41'8 7.5
2015-Jan-16 10:33N 53°43' E 005°53'8 7.6
2015-Jan-16 09:33N 53°46' E 006°05'8 6.7
2015-Jan-16 08:20N 53°49' E 006°18'29 4.2
2015-Jan-16 01:29N 53°56' E 007°06'5 5.0
2015-Jan-16 00:29N 53°58' E 007°14'7 5.9
2015-Jan-15 23:19N 53°59' E 007°25'5 7.2
2015-Jan-15 22:33N 54°01' E 007°34'8 7.7
2015-Jan-15 21:33N 54°02' E 007°47'9 8.9
2015-Jan-15 20:33N 54°02' E 008°02'9 9.1
2015-Jan-15 19:33N 54°01' E 008°17'9 9.1
2015-Jan-15 18:33N 53°58' E 008°32'8 8.0
2015-Jan-15 17:34N 53°53' E 008°43'8 7.5
2015-Jan-15 16:33N 53°51' E 008°55'8 8.2
2015-Jan-15 15:34N 53°53' E 009°08'0 0.4
2015-Jan-15 14:33N 53°54' E 009°09'0 0.0
2015-Jan-15 13:33N 53°54' E 009°09'0 0.1
2015-Jan-15 12:33N 53°54' E 009°09'7 7.2
2015-Jan-15 11:33N 53°59' E 009°17'9 8.5
2015-Jan-15 10:33N 54°07' E 009°20'10 8.2
2015-Jan-15 09:18N 54°13' E 009°35'6 7.5
2015-Jan-15 08:29N 54°18' E 009°41'7 7.7
2015-Jan-15 07:34N 54°22' E 009°51'8 7.9
2015-Jan-15 06:34N 54°22' E 010°04'3 2.8
2015-Jan-15 05:33N 54°22' E 010°09'1 0.9
2015-Jan-15 04:34N 54°22' E 010°10'6 6.0
2015-Jan-15 03:33N 54°28' E 010°15'9 8.9
2015-Jan-15 02:33N 54°33' E 010°28'13 9.2
2015-Jan-15 01:07N 54°35' E 010°50'5 9.1
2015-Jan-15 00:33N 54°36' E 010°59'9 8.7
2015-Jan-14 23:33N 54°35' E 011°14'9 9.3
2015-Jan-14 22:33N 54°31' E 011°28'9 9.4
2015-Jan-14 21:33N 54°27' E 011°43'9 9.4
2015-Jan-14 20:33N 54°26' E 011°59'8 8.0
2015-Jan-14 19:33N 54°30' E 012°11'9 9.0
2015-Jan-14 18:33N 54°38' E 012°19'9 9.2
2015-Jan-14 17:33N 54°43' E 012°33'9 9.2
2015-Jan-14 16:33N 54°47' E 012°47'9 9.0
2015-Jan-14 15:33N 54°47' E 013°03'8 8.0
2015-Jan-14 14:33N 54°47' E 013°17'8 7.6
2015-Jan-14 13:33N 54°47' E 013°30'9 8.8
2015-Jan-14 12:33N 54°45' E 013°45'10 9.3
2015-Jan-14 11:30N 54°42' E 014°01'9 9.6
2015-Jan-14 10:33N 54°39' E 014°16'20 9.3
2015-Jan-14 08:21N 54°40' E 014°51'8 9.6
2015-Jan-14 07:31N 54°41' E 015°05'100 9.1
2015-Jan-13 20:32N 54°54' E 017°57'9 8.8
2015-Jan-13 19:34N 54°54' E 018°12'9 8.7
2015-Jan-13 18:33N 54°51' E 018°26'9 9.5
2015-Jan-13 17:34N 54°46' E 018°40'10 9.7
2015-Jan-13 16:33N 54°41' E 018°54'8 8.1
2015-Jan-13 15:33N 54°33' E 018°51'10 9.8
2015-Jan-13 14:34N 54°26' E 018°40'3 3.0
2015-Jan-13 13:31N 54°23' E 018°40'0 0.0
2015-Jan-13 12:31N 54°23' E 018°40'0 0.0
2015-Jan-13 11:31N 54°23' E 018°40'0 0.0
2015-Jan-13 10:31N 54°23' E 018°40'1 0.6
2015-Jan-13 09:34N 54°23' E 018°40'1 0.8
2015-Jan-13 08:32N 54°22' E 018°40'0 0.0
2015-Jan-13 07:32N 54°22' E 018°40'0 0.0
2015-Jan-13 06:32N 54°22' E 018°40'0 0.0
2015-Jan-13 05:32N 54°22' E 018°40'0 0.0
2015-Jan-13 04:32N 54°22' E 018°40'0 0.0
2015-Jan-13 03:32N 54°22' E 018°40'0 0.0
2015-Jan-13 02:32N 54°22' E 018°40'0 0.0
2015-Jan-13 01:32N 54°22' E 018°40'0 0.0
2015-Jan-13 00:32N 54°22' E 018°40'0 0.0
2015-Jan-12 23:32N 54°22' E 018°40'0 0.0
2015-Jan-12 22:32N 54°22' E 018°40'0 0.0
2015-Jan-12 21:32N 54°22' E 018°40'0 0.0
2015-Jan-12 20:32N 54°22' E 018°40'0 0.0
2015-Jan-12 19:32N 54°22' E 018°40'0 0.0
2015-Jan-12 18:32N 54°22' E 018°40'0 0.0
2015-Jan-12 17:32N 54°22' E 018°40'2 1.6
2015-Jan-12 16:33N 54°23' E 018°40'3 3.0
2015-Jan-12 15:32N 54°26' E 018°39'0 0.0
2015-Jan-12 14:32N 54°26' E 018°39'0 0.0
2015-Jan-12 13:32N 54°26' E 018°39'0 0.0
2015-Jan-12 12:32N 54°26' E 018°39'0 0.0
2015-Jan-12 11:32N 54°26' E 018°39'0 0.0
2015-Jan-12 10:32N 54°26' E 018°39'0 0.0
2015-Jan-12 09:32N 54°26' E 018°39'0 0.0
2015-Jan-12 08:32N 54°26' E 018°39'0 0.0
2015-Jan-12 07:32N 54°26' E 018°39'0 0.0
2015-Jan-12 06:32N 54°26' E 018°39'0 0.0
2015-Jan-12 05:32N 54°26' E 018°39'0 0.0
2015-Jan-12 04:32N 54°26' E 018°39'0 0.0
2015-Jan-12 03:32N 54°26' E 018°39'0 0.0
2015-Jan-12 02:32N 54°26' E 018°39'0 0.0
2015-Jan-12 01:32N 54°26' E 018°39'0 0.0
2015-Jan-12 00:32N 54°26' E 018°39'0 0.0
2015-Jan-11 23:32N 54°26' E 018°39'0 0.0
2015-Jan-11 22:32N 54°26' E 018°39'0 0.0
2015-Jan-11 21:32N 54°26' E 018°39'0 0.0
2015-Jan-11 20:32N 54°26' E 018°39'0 0.0
2015-Jan-11 19:32N 54°26' E 018°39'0 0.0
2015-Jan-11 18:32N 54°26' E 018°39'0 0.0
2015-Jan-11 17:32N 54°26' E 018°39'0 0.0
2015-Jan-11 16:32N 54°26' E 018°39'0 0.0
2015-Jan-11 15:32N 54°26' E 018°39'0 0.0
2015-Jan-11 14:32N 54°26' E 018°39'0 0.0
2015-Jan-11 13:32N 54°26' E 018°39'0 0.0
2015-Jan-11 12:32N 54°26' E 018°39'0 0.0
2015-Jan-11 11:32N 54°26' E 018°39'0 0.0
2015-Jan-11 10:32N 54°26' E 018°39'0 0.0
2015-Jan-11 09:32N 54°26' E 018°39'0 0.0
2015-Jan-11 08:32N 54°26' E 018°39'0 0.0
2015-Jan-11 07:32N 54°26' E 018°39'0 0.0
2015-Jan-11 06:31N 54°26' E 018°39'0 0.0
2015-Jan-11 05:31N 54°26' E 018°39'0 0.0
2015-Jan-11 04:31N 54°26' E 018°39'0 0.0
2015-Jan-11 03:31N 54°26' E 018°39'0 0.0
2015-Jan-11 02:31N 54°26' E 018°39'0 0.0
2015-Jan-11 01:31N 54°26' E 018°39'0 0.0
2015-Jan-11 00:31N 54°26' E 018°39'0 0.0
2015-Jan-10 23:31N 54°26' E 018°39'0 0.0
2015-Jan-10 22:31N 54°26' E 018°39'0 0.0
2015-Jan-10 21:31N 54°26' E 018°39'0 0.0
2015-Jan-10 20:31N 54°26' E 018°39'0 0.0
2015-Jan-10 19:31N 54°26' E 018°39'0 0.0
2015-Jan-10 18:31N 54°26' E 018°39'0 0.0
2015-Jan-10 17:31N 54°26' E 018°39'0 0.0
2015-Jan-10 16:31N 54°26' E 018°39'0 0.0
2015-Jan-10 15:31N 54°26' E 018°39'0 0.0
2015-Jan-10 14:31N 54°26' E 018°39'0 0.0
2015-Jan-10 13:31N 54°26' E 018°39'0 0.0
2015-Jan-10 12:31N 54°26' E 018°39'0 0.0
2015-Jan-10 11:31N 54°26' E 018°39'0 0.0
2015-Jan-10 10:31N 54°26' E 018°39'0 0.0
2015-Jan-10 09:31N 54°26' E 018°39'0 0.1
2015-Jan-10 08:31N 54°26' E 018°39'0 0.0
2015-Jan-10 07:31N 54°26' E 018°39'0 0.0
2015-Jan-10 06:31N 54°26' E 018°39'0 0.0
2015-Jan-10 05:31N 54°26' E 018°39'  

Dump ship's entire track history